Time;durP1;ratioP1;P1;durP2;ratioP2;P2;SDS_P1;SDS_P2;PMS_P1;PMS_P2;Temp;Humidity;BMP_temperature;BMP_pressure;BME280_temperature;BME280_humidity;BME280_pressure;Samples;Min_cycle;Max_cycle;Signal;HPM_P1;HPM_P2
2021/10/09 00:00:08;;;;;;;0.40;0.40;;;;;;;10.72;54.06;102826.06;685576;28;22397;-66
2021/10/09 00:00:29;;;;;;;0.30;0.30;;;;;;;10.74;54.31;102821.38;684292;28;70193;-66
2021/10/09 00:00:51;;;;;;;0.30;0.30;;;;;;;10.74;54.23;102829.47;686037;28;23489;-67
2021/10/09 00:01:12;;;;;;;0.45;0.45;;;;;;;10.74;54.12;102828.63;685478;28;46114;-66
2021/10/09 00:01:34;;;;;;;0.40;0.40;;;;;;;10.72;54.08;102831.47;686161;28;21517;-66
2021/10/09 00:01:55;;;;;;;0.32;0.32;;;;;;;10.70;54.37;102819.88;685573;28;44375;-66
2021/10/09 00:02:16;;;;;;;0.30;0.30;;;;;;;10.71;54.42;102829.72;686186;28;23263;-66
2021/10/09 00:02:38;;;;;;;0.38;0.38;;;;;;;10.69;54.21;102823.59;686385;28;22402;-66
2021/10/09 00:03:00;;;;;;;0.40;0.40;;;;;;;10.68;54.38;102832.69;686283;28;23473;-66
2021/10/09 00:03:21;;;;;;;0.30;0.30;;;;;;;10.66;54.29;102833.78;685357;28;69272;-67
2021/10/09 00:03:42;;;;;;;0.30;0.30;;;;;;;10.64;54.26;102829.38;685655;28;46416;-67
2021/10/09 00:04:03;;;;;;;0.30;0.30;;;;;;;10.60;54.18;102833.31;686096;28;22636;-66
2021/10/09 00:04:25;;;;;;;0.40;0.40;;;;;;;10.61;54.49;102831.47;686293;28;22684;-66
2021/10/09 00:04:46;;;;;;;0.40;0.40;;;;;;;10.60;54.49;102836.00;685508;28;46339;-66
2021/10/09 00:05:08;;;;;;;0.30;0.30;;;;;;;10.61;54.42;102829.63;685177;28;21530;-66
2021/10/09 00:05:31;;;;;;;0.30;0.30;;;;;;;10.60;54.65;102835.16;685793;28;46345;-66
2021/10/09 00:05:53;;;;;;;0.40;0.40;;;;;;;10.60;54.50;102827.06;685290;28;45281;-66
2021/10/09 00:06:14;;;;;;;0.40;0.40;;;;;;;10.59;54.55;102836.97;685268;28;45312;-67
2021/10/09 00:06:35;;;;;;;0.30;0.30;;;;;;;10.59;54.50;102833.44;685682;28;23447;-66
2021/10/09 00:06:56;;;;;;;0.30;0.30;;;;;;;10.59;54.56;102828.88;686218;28;22402;-66
2021/10/09 00:07:17;;;;;;;0.30;0.30;;;;;;;10.58;54.62;102826.31;683925;28;22366;-66
2021/10/09 00:07:39;;;;;;;0.40;0.40;;;;;;;10.57;54.48;102827.31;681640;28;46508;-66
2021/10/09 00:08:01;;;;;;;0.40;0.40;;;;;;;10.57;54.58;102830.00;682922;28;44405;-68
2021/10/09 00:08:22;;;;;;;0.40;0.40;;;;;;;10.55;54.59;102826.56;686047;28;23516;-67
2021/10/09 00:08:43;;;;;;;0.30;0.30;;;;;;;10.55;54.50;102826.56;686417;28;22342;-67
2021/10/09 00:09:04;;;;;;;0.40;0.40;;;;;;;10.55;54.80;102829.25;684844;28;43751;-66
2021/10/09 00:09:27;;;;;;;0.40;0.40;;;;;;;10.50;54.67;102821.56;686362;28;22487;-66
2021/10/09 00:09:53;;;;;;;0.30;0.30;;;;;;;10.57;54.56;102828.16;684558;28;69153;-66
2021/10/09 00:10:24;;;;;;;0.30;0.30;;;;;;;10.57;54.58;102827.31;682144;28;134622;-66
2021/10/09 00:10:46;;;;;;;0.40;0.40;;;;;;;10.59;54.62;102826.19;682011;28;137887;-67
2021/10/09 00:11:14;;;;;;;0.40;0.40;;;;;;;10.55;54.69;102822.03;684746;28;69297;-66
2021/10/09 00:11:37;;;;;;;0.30;0.30;;;;;;;10.56;54.59;102821.03;681791;28;138149;-65
2021/10/09 00:11:58;;;;;;;0.30;0.30;;;;;;;10.58;54.53;102829.88;685404;28;70300;-66
2021/10/09 00:12:20;;;;;;;0.40;0.40;;;;;;;10.59;54.74;102830.72;686542;28;22422;-66
2021/10/09 00:12:41;;;;;;;0.40;0.40;;;;;;;10.58;54.86;102827.19;685567;28;46624;-67
2021/10/09 00:13:02;;;;;;;0.38;0.38;;;;;;;10.58;54.77;102829.88;686207;28;23533;-67
2021/10/09 00:13:24;;;;;;;0.30;0.30;;;;;;;10.60;54.70;102822.50;686002;28;22342;-67
2021/10/09 00:13:46;;;;;;;0.30;0.30;;;;;;;10.60;54.72;102827.06;685340;28;46267;-67
2021/10/09 00:14:09;;;;;;;0.50;0.50;;;;;;;10.62;54.47;102834.03;685753;28;44384;-66
2021/10/09 00:14:30;;;;;;;0.40;0.40;;;;;;;10.63;54.61;102824.94;684848;28;70195;-66
2021/10/09 00:14:52;;;;;;;0.30;0.30;;;;;;;10.64;54.49;102831.19;686527;28;23485;-66
2021/10/09 00:15:13;;;;;;;0.30;0.30;;;;;;;10.62;54.67;102827.78;684517;28;66240;-66
2021/10/09 00:15:34;;;;;;;0.40;0.40;;;;;;;10.61;54.38;102829.63;686882;28;21552;-67
2021/10/09 00:15:56;;;;;;;0.40;0.40;;;;;;;10.61;54.39;102826.94;686627;28;15468;-66
2021/10/09 00:16:17;;;;;;;0.30;0.30;;;;;;;10.59;54.47;102833.44;685409;28;45950;-66
2021/10/09 00:16:40;;;;;;;0.30;0.30;;;;;;;10.58;54.62;102827.19;686300;28;22410;-66
2021/10/09 00:17:01;;;;;;;0.40;0.40;;;;;;;10.56;54.63;102828.28;684278;28;69455;-67
2021/10/09 00:17:24;;;;;;;0.50;0.50;;;;;;;10.55;54.57;102830.13;686187;28;22553;-66
2021/10/09 00:17:46;;;;;;;0.40;0.40;;;;;;;10.55;54.50;102830.13;684255;28;69706;-66
2021/10/09 00:18:07;;;;;;;0.30;0.30;;;;;;;10.55;54.52;102829.25;685426;28;44390;-67
2021/10/09 00:18:28;;;;;;;0.30;0.30;;;;;;;10.54;54.77;102835.66;685679;28;25622;-66
2021/10/09 00:18:49;;;;;;;0.40;0.40;;;;;;;10.51;54.76;102831.34;686465;28;22418;-66
2021/10/09 00:19:12;;;;;;;0.40;0.40;;;;;;;10.52;54.47;102838.50;686174;28;22473;-66
2021/10/09 00:19:33;;;;;;;0.40;0.40;;;;;;;10.49;54.80;102827.94;685049;28;70321;-66
2021/10/09 00:19:54;;;;;;;0.30;0.30;;;;;;;10.48;54.85;102834.31;685521;28;21550;-66
2021/10/09 00:20:15;;;;;;;0.40;0.40;;;;;;;10.48;54.84;102834.31;686215;28;22418;-66
2021/10/09 00:20:38;;;;;;;0.47;0.47;;;;;;;10.47;54.65;102824.50;686083;28;23469;-66
2021/10/09 00:20:59;;;;;;;0.40;0.40;;;;;;;10.49;54.78;102833.34;684679;28;70870;-66
2021/10/09 00:21:20;;;;;;;0.30;0.30;;;;;;;10.49;54.97;102827.09;686315;28;22375;-67
2021/10/09 00:21:44;;;;;;;0.30;0.30;;;;;;;10.49;54.75;102832.50;685958;28;22422;-66
2021/10/09 00:22:05;;;;;;;0.40;0.40;;;;;;;10.48;54.68;102822.66;684224;28;90254;-66
2021/10/09 00:22:27;;;;;;;0.30;0.30;;;;;;;10.49;55.05;102824.38;686353;28;22420;-66
2021/10/09 00:22:48;;;;;;;0.30;0.30;;;;;;;10.50;54.65;102826.97;685301;28;44418;-66
2021/10/09 00:23:09;;;;;;;0.30;0.30;;;;;;;10.49;54.90;102833.34;686021;28;22421;-66
2021/10/09 00:23:30;;;;;;;0.40;0.40;;;;;;;10.49;55.02;102827.09;686710;28;22426;-66
2021/10/09 00:23:51;;;;;;;0.40;0.40;;;;;;;10.50;54.64;102826.06;685869;28;21562;-66
2021/10/09 00:24:14;;;;;;;0.40;0.40;;;;;;;10.48;54.84;102828.06;691219;28;22125;-66
2021/10/09 00:24:35;;;;;;;0.30;0.30;;;;;;;10.49;54.79;102827.94;689988;28;68438;-66
2021/10/09 00:24:56;;;;;;;0.30;0.30;;;;;;;10.49;54.92;102827.09;690528;28;22382;-66
2021/10/09 00:25:17;;;;;;;0.40;0.40;;;;;;;10.49;54.63;102827.94;691412;28;23457;-67
2021/10/09 00:25:39;;;;;;;0.40;0.40;;;;;;;10.49;54.79;102833.34;691116;28;23434;-66
2021/10/09 00:26:00;;;;;;;0.30;0.30;;;;;;;10.51;54.85;102827.81;687359;28;45051;-66
2021/10/09 00:26:21;;;;;;;0.30;0.30;;;;;;;10.50;54.76;102829.66;686719;28;23257;-66
2021/10/09 00:26:43;;;;;;;0.40;0.40;;;;;;;10.46;54.63;102818.22;687507;28;21269;-66
2021/10/09 00:27:05;;;;;;;0.40;0.40;;;;;;;10.49;54.61;102833.34;683823;28;22414;-66
2021/10/09 00:27:26;;;;;;;0.40;0.40;;;;;;;10.48;54.60;102825.34;680844;28;44390;-66
2021/10/09 00:27:47;;;;;;;0.30;0.30;;;;;;;10.48;54.73;102825.34;680254;28;46317;-67
2021/10/09 00:28:10;;;;;;;0.35;0.35;;;;;;;10.47;54.82;102827.22;683286;28;45099;-66
2021/10/09 00:28:31;;;;;;;0.43;0.43;;;;;;;10.46;54.75;102823.63;683071;28;45271;-66
2021/10/09 00:28:52;;;;;;;0.40;0.40;;;;;;;10.48;54.70;102828.06;681554;28;23477;-66
2021/10/09 00:29:13;;;;;;;0.40;0.40;;;;;;;10.46;54.77;102829.03;682156;28;22413;-66
2021/10/09 00:29:35;;;;;;;0.30;0.30;;;;;;;10.48;55.00;102830.75;684748;28;21200;-66
2021/10/09 00:29:57;;;;;;;0.40;0.40;;;;;;;10.48;54.78;102826.19;683119;28;44423;-66
2021/10/09 00:30:18;;;;;;;0.40;0.40;;;;;;;10.50;54.82;102836.88;684377;28;22410;-66
2021/10/09 00:30:40;;;;;;;0.40;0.40;;;;;;;10.48;55.06;102826.19;681881;28;46367;-66
2021/10/09 00:31:01;;;;;;;0.30;0.30;;;;;;;10.49;54.99;102827.09;683499;28;45317;-66
2021/10/09 00:31:22;;;;;;;0.30;0.30;;;;;;;10.48;55.00;102823.50;684392;28;22402;-66
2021/10/09 00:31:43;;;;;;;0.50;0.50;;;;;;;10.50;55.07;102832.38;684597;28;23364;-66
2021/10/09 00:32:05;;;;;;;0.40;0.40;;;;;;;10.50;54.89;102829.66;681894;28;22449;-68
2021/10/09 00:32:27;;;;;;;0.30;0.30;;;;;;;10.50;54.65;102834.19;682320;28;22398;-67
2021/10/09 00:32:48;;;;;;;0.30;0.30;;;;;;;10.50;54.90;102826.06;680844;28;45095;-66
2021/10/09 00:33:09;;;;;;;0.40;0.40;;;;;;;10.51;54.64;102822.41;680794;28;24847;-66
2021/10/09 00:33:30;;;;;;;0.40;0.40;;;;;;;10.55;54.71;102827.44;681024;29;23490;-66
2021/10/09 00:33:52;;;;;;;0.35;0.35;;;;;;;10.53;54.73;102826.72;679004;29;22489;-66
2021/10/09 00:34:14;;;;;;;0.30;0.30;;;;;;;10.53;54.60;102825.81;681121;28;69449;-66
2021/10/09 00:34:35;;;;;;;0.30;0.30;;;;;;;10.53;54.83;102821.31;685239;28;21559;-66
2021/10/09 00:34:56;;;;;;;0.40;0.40;;;;;;;10.54;54.58;102819.44;683800;28;22417;-66
2021/10/09 00:35:18;;;;;;;0.40;0.40;;;;;;;10.52;54.54;102824.13;684463;28;21340;-66
2021/10/09 00:35:40;;;;;;;0.30;0.30;;;;;;;10.52;54.49;102822.28;684353;28;46296;-66
2021/10/09 00:36:01;;;;;;;0.30;0.30;;;;;;;10.52;54.73;102822.28;682850;28;67518;-66
2021/10/09 00:36:22;;;;;;;0.40;0.40;;;;;;;10.50;54.68;102823.38;684545;28;22409;-66
2021/10/09 00:36:43;;;;;;;0.40;0.40;;;;;;;10.48;54.74;102819.94;684412;28;21363;-66
2021/10/09 00:37:05;;;;;;;0.40;0.40;;;;;;;10.48;54.75;102819.94;685066;28;22313;-66
2021/10/09 00:37:27;;;;;;;0.30;0.30;;;;;;;10.47;54.86;102824.50;684811;28;45135;-66
2021/10/09 00:37:48;;;;;;;0.30;0.30;;;;;;;10.46;54.65;102826.31;686780;28;22984;-66
2021/10/09 00:38:09;;;;;;;0.40;0.40;;;;;;;10.47;54.53;102821.81;688295;28;22398;-66
2021/10/09 00:38:31;;;;;;;0.40;0.40;;;;;;;10.46;54.98;102826.31;688081;28;22384;-66
2021/10/09 00:38:54;;;;;;;0.40;0.40;;;;;;;10.46;54.69;102825.47;685560;28;67514;-66
2021/10/09 00:39:15;;;;;;;0.30;0.30;;;;;;;10.44;54.94;102820.19;685623;28;46554;-66
2021/10/09 00:39:36;;;;;;;0.40;0.40;;;;;;;10.45;54.82;102823.75;686860;28;22247;-66
2021/10/09 00:39:58;;;;;;;0.40;0.40;;;;;;;10.45;54.73;102821.06;685576;28;21520;-66
2021/10/09 00:40:19;;;;;;;0.40;0.40;;;;;;;10.46;54.71;102825.47;685329;28;45191;-66
2021/10/09 00:40:46;;;;;;;0.30;0.30;;;;;;;10.45;54.73;102819.22;684628;28;59440;-66
2021/10/09 00:41:07;;;;;;;0.30;0.30;;;;;;;10.45;54.88;102818.34;686046;28;23525;-66
2021/10/09 00:41:29;;;;;;;0.40;0.40;;;;;;;10.44;54.68;102825.59;688354;28;23760;-66
2021/10/09 00:41:50;;;;;;;0.40;0.40;;;;;;;10.44;54.90;102822.91;687873;28;47925;-67
2021/10/09 00:42:11;;;;;;;0.30;0.30;;;;;;;10.42;54.77;102819.47;688572;28;21547;-66
2021/10/09 00:42:33;;;;;;;0.22;0.22;;;;;;;10.43;54.86;102821.19;689002;28;22401;-66
2021/10/09 00:42:54;;;;;;;0.40;0.40;;;;;;;10.40;54.93;102821.44;686032;28;44163;-66
2021/10/09 00:43:15;;;;;;;0.40;0.40;;;;;;;10.39;54.89;102814.31;687642;28;22398;-66
2021/10/09 00:43:36;;;;;;;0.30;0.30;;;;;;;10.39;54.88;102827.84;685772;28;21139;-66
2021/10/09 00:44:08;;;;;;;0.30;0.30;;;;;;;10.38;54.99;102823.41;686009;28;22406;-66
2021/10/09 00:44:29;;;;;;;0.40;0.40;;;;;;;10.38;55.16;102822.56;681843;28;137858;-66
2021/10/09 00:44:50;;;;;;;0.40;0.40;;;;;;;10.41;54.88;102825.00;685440;28;22276;-66
2021/10/09 00:45:12;;;;;;;0.40;0.40;;;;;;;10.39;54.99;102822.44;682681;28;22366;-66
2021/10/09 00:45:33;;;;;;;0.30;0.30;;;;;;;10.40;55.05;102825.97;684071;28;46370;-66
2021/10/09 00:45:56;;;;;;;0.30;0.30;;;;;;;10.39;54.89;102825.13;684993;28;23440;-66
2021/10/09 00:46:17;;;;;;;0.40;0.40;;;;;;;10.39;54.98;102827.84;684432;28;69470;-66
2021/10/09 00:46:39;;;;;;;0.30;0.30;;;;;;;10.39;55.02;102827.84;685361;28;21552;-67
2021/10/09 00:47:02;;;;;;;0.30;0.30;;;;;;;10.40;55.24;102823.28;683367;28;46558;-66
2021/10/09 00:47:24;;;;;;;0.30;0.30;;;;;;;10.40;54.96;102831.38;684067;28;69385;-66
2021/10/09 00:47:46;;;;;;;0.38;0.38;;;;;;;10.41;54.92;102822.31;684517;28;46322;-66
2021/10/09 00:48:07;;;;;;;0.40;0.40;;;;;;;10.41;55.07;102827.72;686179;28;22689;-66
2021/10/09 00:48:28;;;;;;;0.30;0.30;;;;;;;10.41;55.10;102830.41;686259;28;22438;-67
2021/10/09 00:48:50;;;;;;;0.30;0.30;;;;;;;10.39;55.19;102822.44;685869;28;44224;-68
2021/10/09 00:49:15;;;;;;;0.30;0.30;;;;;;;10.41;55.04;102831.25;687238;28;45265;-67
2021/10/09 00:49:36;;;;;;;0.40;0.40;;;;;;;10.41;55.18;102828.56;685540;28;115503;-67
2021/10/09 00:49:57;;;;;;;0.40;0.40;;;;;;;10.45;55.15;102827.34;687516;28;22409;-67
2021/10/09 00:50:19;;;;;;;0.30;0.30;;;;;;;10.45;55.13;102824.63;688411;28;23823;-67
2021/10/09 00:50:41;;;;;;;0.30;0.30;;;;;;;10.49;55.05;102829.78;687789;28;43744;-67
2021/10/09 00:51:04;;;;;;;0.40;0.40;;;;;;;10.48;54.97;102828.06;684043;28;67110;-67
2021/10/09 00:51:25;;;;;;;0.40;0.40;;;;;;;10.48;54.90;102828.06;683134;28;46518;-67
2021/10/09 00:51:48;;;;;;;0.40;0.40;;;;;;;10.48;54.99;102828.91;681017;29;46164;-67
2021/10/09 00:52:10;;;;;;;0.30;0.30;;;;;;;10.47;55.02;102829.91;681209;28;69452;-68
2021/10/09 00:52:34;;;;;;;0.40;0.40;;;;;;;10.46;54.88;102823.63;683531;28;44403;-67
2021/10/09 00:52:56;;;;;;;0.47;0.47;;;;;;;10.47;55.01;102829.91;681385;28;69496;-67
2021/10/09 00:53:20;;;;;;;0.40;0.40;;;;;;;10.49;55.12;102825.22;684124;28;69461;-68
2021/10/09 00:53:41;;;;;;;0.30;0.30;;;;;;;10.49;55.02;102829.78;684755;28;91990;-67
2021/10/09 00:54:03;;;;;;;0.30;0.30;;;;;;;10.51;54.98;102827.81;687128;28;21522;-67
2021/10/09 00:54:25;;;;;;;0.40;0.40;;;;;;;10.51;55.05;102822.41;683307;28;45391;-66
2021/10/09 00:54:48;;;;;;;0.40;0.40;;;;;;;10.53;54.98;102825.81;684693;28;46411;-67
2021/10/09 00:55:10;;;;;;;0.35;0.35;;;;;;;10.55;54.92;102831.97;684997;28;69326;-67
2021/10/09 00:55:31;;;;;;;0.30;0.30;;;;;;;10.53;54.82;102831.22;683511;28;46445;-67
2021/10/09 00:55:55;;;;;;;0.40;0.40;;;;;;;10.57;55.02;102824.59;683945;28;22402;-67
2021/10/09 00:56:18;;;;;;;0.40;0.40;;;;;;;10.56;54.77;102831.84;681922;28;92334;-67
2021/10/09 00:56:40;;;;;;;0.40;0.40;;;;;;;10.55;54.68;102834.66;682684;28;69451;-67
2021/10/09 00:57:02;;;;;;;0.35;0.35;;;;;;;10.53;54.80;102832.13;683692;28;46259;-67
2021/10/09 00:57:24;;;;;;;0.40;0.40;;;;;;;10.55;54.81;102826.56;680978;28;45398;-67
2021/10/09 00:57:47;;;;;;;0.43;0.43;;;;;;;10.57;54.87;102824.59;679277;29;46416;-67
2021/10/09 00:58:08;;;;;;;0.40;0.40;;;;;;;10.57;54.92;102821.91;679497;28;45268;-67
2021/10/09 00:58:29;;;;;;;0.40;0.40;;;;;;;10.58;54.89;102827.19;676699;29;46340;-67
2021/10/09 00:58:51;;;;;;;0.30;0.30;;;;;;;10.60;54.77;102832.47;678264;29;46329;-67
2021/10/09 00:59:14;;;;;;;0.40;0.40;;;;;;;10.61;55.00;102826.06;677930;29;22262;-67
2021/10/09 00:59:37;;;;;;;0.40;0.40;;;;;;;10.62;54.74;102830.47;678714;29;70495;-67
2021/10/09 00:59:59;;;;;;;0.35;0.35;;;;;;;10.63;54.86;102834.91;678041;28;69464;-67
2021/10/09 01:00:20;;;;;;;0.30;0.30;;;;;;;10.62;54.82;102825.06;681743;28;46389;-67
2021/10/09 01:00:43;;;;;;;0.40;0.40;;;;;;;10.62;54.46;102827.78;685099;28;46416;-67
2021/10/09 01:01:04;;;;;;;0.40;0.40;;;;;;;10.65;54.46;102830.22;682881;28;67607;-67
2021/10/09 01:01:25;;;;;;;0.40;0.40;;;;;;;10.67;54.68;102832.81;684771;28;23701;-67
2021/10/09 01:01:47;;;;;;;0.30;0.30;;;;;;;10.67;54.65;102820.16;684787;28;22310;-67
2021/10/09 01:02:10;;;;;;;0.30;0.30;;;;;;;10.64;54.80;102823.97;682973;28;69819;-67
2021/10/09 01:02:32;;;;;;;0.47;0.47;;;;;;;10.66;54.55;102825.69;683996;28;19291;-67
2021/10/09 01:02:53;;;;;;;0.52;0.52;;;;;;;10.67;54.61;102830.94;683274;28;45244;-67
2021/10/09 01:03:14;;;;;;;0.57;0.57;;;;;;;10.68;54.66;102821.03;683004;28;23536;-67
2021/10/09 01:03:36;;;;;;;0.70;0.70;;;;;;;10.69;54.62;102830.81;683179;28;22380;-67
2021/10/09 01:03:59;;;;;;;0.70;0.70;;;;;;;10.71;54.38;102828.88;682756;28;67492;-67
2021/10/09 01:04:20;;;;;;;0.40;0.40;;;;;;;10.70;54.54;102824.44;683270;28;45265;-67
2021/10/09 01:04:42;;;;;;;0.40;0.40;;;;;;;10.71;54.38;102829.72;683626;28;46363;-67
2021/10/09 01:05:06;;;;;;;0.30;0.30;;;;;;;10.73;54.59;102835.00;682708;28;45300;-67
2021/10/09 01:05:27;;;;;;;0.30;0.30;;;;;;;10.74;54.46;102823.22;681782;28;90755;-67
2021/10/09 01:05:50;;;;;;;0.40;0.40;;;;;;;10.71;54.38;102827.03;684324;28;22250;-67
2021/10/09 01:06:12;;;;;;;0.40;0.40;;;;;;;10.73;54.19;102827.75;681589;28;67476;-67
2021/10/09 01:06:34;;;;;;;0.32;0.32;;;;;;;10.72;54.09;102831.47;681323;28;22393;-67
2021/10/09 01:06:55;;;;;;;0.30;0.30;;;;;;;10.72;54.16;102835.97;682384;28;45257;-68
2021/10/09 01:07:16;;;;;;;0.40;0.40;;;;;;;10.71;54.29;102829.72;685795;28;22378;-67
2021/10/09 01:07:39;;;;;;;0.40;0.40;;;;;;;10.72;54.37;102833.28;684151;28;45269;-67
2021/10/09 01:08:00;;;;;;;0.40;0.40;;;;;;;10.70;54.40;102833.41;683154;28;42876;-67
2021/10/09 01:08:21;;;;;;;0.30;0.30;;;;;;;10.69;54.35;102831.72;687009;28;22525;-67
2021/10/09 01:08:43;;;;;;;0.30;0.30;;;;;;;10.61;54.28;102817.94;685782;28;44386;-67
2021/10/09 01:09:05;;;;;;;0.40;0.40;;;;;;;10.66;54.30;102828.38;686360;28;22508;-67
2021/10/09 01:09:26;;;;;;;0.40;0.40;;;;;;;10.67;54.22;102830.09;683524;28;46326;-67
2021/10/09 01:09:47;;;;;;;0.30;0.30;;;;;;;10.68;54.21;102829.13;682142;28;22421;-67
2021/10/09 01:10:11;;;;;;;0.30;0.30;;;;;;;10.67;54.05;102822.84;679822;28;67486;-67
2021/10/09 01:10:32;;;;;;;0.40;0.40;;;;;;;10.66;54.27;102825.69;681571;28;44218;-68
2021/10/09 01:10:53;;;;;;;0.43;0.43;;;;;;;10.63;54.35;102835.75;684162;28;22390;-67
2021/10/09 01:11:14;;;;;;;0.40;0.40;;;;;;;10.61;54.14;102829.63;684537;28;23641;-67
2021/10/09 01:11:38;;;;;;;0.30;0.30;;;;;;;10.61;54.16;102829.63;681578;28;44373;-67
2021/10/09 01:12:00;;;;;;;0.40;0.40;;;;;;;10.59;54.42;102830.72;680084;28;92948;-67
2021/10/09 01:12:22;;;;;;;0.40;0.40;;;;;;;10.59;54.19;102838.84;684164;28;1181;-67
2021/10/09 01:12:43;;;;;;;0.40;0.40;;;;;;;10.58;54.40;102832.59;680519;29;22401;-67
2021/10/09 01:13:06;;;;;;;0.30;0.30;;;;;;;10.55;54.44;102821.16;683136;28;22433;-67
2021/10/09 01:13:28;;;;;;;0.38;0.38;;;;;;;10.58;54.52;102831.72;681066;28;67514;-67
2021/10/09 01:13:49;;;;;;;0.40;0.40;;;;;;;10.52;54.49;102827.69;683461;28;45296;-68
2021/10/09 01:14:10;;;;;;;0.40;0.40;;;;;;;10.60;54.66;102836.00;684064;28;21545;-67
2021/10/09 01:14:33;;;;;;;0.30;0.30;;;;;;;10.57;54.62;102828.16;683801;28;45303;-67
2021/10/09 01:14:54;;;;;;;0.30;0.30;;;;;;;10.58;54.57;102834.41;681295;28;45306;-67
2021/10/09 01:15:17;;;;;;;0.40;0.40;;;;;;;10.57;54.48;102832.72;679767;29;21546;-67
2021/10/09 01:15:39;;;;;;;0.40;0.40;;;;;;;10.56;54.31;102834.53;678753;29;69372;-67
2021/10/09 01:16:17;;;;;;;0.30;0.30;;;;;;;10.54;54.47;102830.25;673493;29;156678;-67
2021/10/09 01:16:38;;;;;;;0.30;0.30;;;;;;;10.53;54.42;102833.94;672504;29;137331;-68
2021/10/09 01:17:01;;;;;;;0.40;0.40;;;;;;;10.52;54.53;102829.53;674861;29;44406;-67
2021/10/09 01:17:23;;;;;;;0.40;0.40;;;;;;;10.50;54.51;102835.06;677062;29;45272;-67
2021/10/09 01:17:44;;;;;;;0.30;0.30;;;;;;;10.51;54.33;102830.50;680124;28;21562;-68
2021/10/09 01:18:07;;;;;;;0.30;0.30;;;;;;;10.46;54.70;102829.03;682608;28;46218;-68
2021/10/09 01:18:30;;;;;;;0.40;0.40;;;;;;;10.47;54.43;102827.22;683250;28;92335;-68
2021/10/09 01:18:53;;;;;;;0.40;0.40;;;;;;;10.46;54.68;102831.72;686237;28;43669;-67
2021/10/09 01:19:14;;;;;;;0.40;0.40;;;;;;;10.48;54.70;102822.66;686685;28;69390;-67
2021/10/09 01:19:40;;;;;;;0.30;0.30;;;;;;;10.45;54.49;102832.75;684141;28;113638;-67
2021/10/09 01:20:02;;;;;;;0.40;0.40;;;;;;;10.45;54.61;102826.44;684577;28;69483;-68
2021/10/09 01:20:42;;;;;;;0.40;0.40;;;;;;;10.48;54.57;102831.59;679360;28;115078;-68
2021/10/09 01:21:04;;;;;;;0.40;0.40;;;;;;;10.47;54.80;102832.63;674376;29;157794;-68
2021/10/09 01:21:37;;;;;;;0.30;0.30;;;;;;;10.45;54.61;102832.75;677779;28;136628;-68
2021/10/09 01:21:59;;;;;;;0.43;0.43;;;;;;;10.46;54.69;102833.59;679788;28;136159;-68
2021/10/09 01:22:23;;;;;;;0.40;0.40;;;;;;;10.43;54.54;102831.97;683022;28;91982;-68
2021/10/09 01:22:45;;;;;;;0.30;0.30;;;;;;;10.45;54.46;102832.75;683470;28;22417;-68
2021/10/09 01:23:07;;;;;;;0.30;0.30;;;;;;;10.44;54.52;102833.72;684222;28;67430;-68
2021/10/09 01:23:35;;;;;;;0.40;0.40;;;;;;;10.41;54.64;102827.72;677659;28;115296;-67
2021/10/09 01:23:56;;;;;;;0.40;0.40;;;;;;;10.39;54.39;102825.13;676833;29;115114;-67
2021/10/09 01:24:20;;;;;;;0.35;0.35;;;;;;;10.40;54.73;102826.81;679927;28;47230;-67
2021/10/09 01:24:42;;;;;;;0.30;0.30;;;;;;;10.38;54.46;102828.81;678894;28;68154;-67
2021/10/09 01:25:07;;;;;;;0.40;0.40;;;;;;;10.38;54.44;102838.75;679442;28;92588;-67
2021/10/09 01:25:28;;;;;;;0.40;0.40;;;;;;;10.36;54.72;102829.91;682303;28;46360;-67
2021/10/09 01:25:50;;;;;;;0.40;0.40;;;;;;;10.34;54.50;102832.72;680193;28;44406;-68
2021/10/09 01:26:13;;;;;;;0.30;0.30;;;;;;;10.28;54.78;102831.38;680681;29;46419;-68
2021/10/09 01:26:36;;;;;;;0.35;0.35;;;;;;;10.33;54.65;102831.03;676498;29;92303;-68
2021/10/09 01:26:59;;;;;;;0.40;0.40;;;;;;;10.33;54.80;102832.84;681115;28;92327;-68
2021/10/09 01:27:22;;;;;;;0.40;0.40;;;;;;;10.31;54.69;102829.38;681893;28;22433;-67
2021/10/09 01:27:44;;;;;;;0.30;0.30;;;;;;;10.29;54.72;102829.50;681344;28;46338;-67
2021/10/09 01:28:06;;;;;;;0.30;0.30;;;;;;;10.28;54.99;102833.19;683207;28;67443;-67
2021/10/09 01:28:28;;;;;;;0.50;0.50;;;;;;;10.27;55.04;102832.34;685529;28;46688;-68
2021/10/09 01:28:51;;;;;;;0.40;0.40;;;;;;;10.25;54.67;102836.13;684303;28;46703;-68
2021/10/09 01:29:15;;;;;;;0.30;0.30;;;;;;;10.22;54.96;102834.56;680338;28;67309;-68
2021/10/09 01:29:40;;;;;;;0.30;0.30;;;;;;;10.22;54.83;102828.28;676771;28;137905;-68
2021/10/09 01:30:01;;;;;;;0.40;0.40;;;;;;;10.21;54.96;102832.84;680039;28;23214;-68
2021/10/09 01:30:23;;;;;;;0.40;0.40;;;;;;;10.19;55.00;102832.09;683347;28;12003;-68
2021/10/09 01:30:46;;;;;;;0.40;0.40;;;;;;;10.18;55.14;102833.06;682572;28;23563;-67
2021/10/09 01:31:07;;;;;;;0.30;0.30;;;;;;;10.16;55.04;102834.19;679991;28;66852;-68
2021/10/09 01:31:28;;;;;;;0.30;0.30;;;;;;;10.16;55.04;102821.56;679071;29;22462;-67
2021/10/09 01:31:49;;;;;;;0.40;0.40;;;;;;;10.16;54.99;102829.66;679928;29;23568;-67
2021/10/09 01:32:13;;;;;;;0.40;0.40;;;;;;;10.14;55.30;102825.34;677339;29;69468;-67
2021/10/09 01:32:34;;;;;;;0.30;0.30;;;;;;;10.14;55.13;102830.75;678985;29;44964;-67
2021/10/09 01:32:56;;;;;;;0.30;0.30;;;;;;;10.13;55.11;102829.91;681006;28;44365;-67
2021/10/09 01:33:17;;;;;;;0.40;0.40;;;;;;;10.09;55.35;102826.59;681589;28;22421;-67
2021/10/09 01:33:40;;;;;;;0.40;0.40;;;;;;;10.12;55.42;102828.16;682298;28;22275;-67
2021/10/09 01:34:04;;;;;;;0.30;0.30;;;;;;;10.13;55.33;102829.03;678687;28;113600;-68
2021/10/09 01:34:27;;;;;;;0.30;0.30;;;;;;;10.14;55.18;102833.44;684170;28;2785;-68
2021/10/09 01:34:54;;;;;;;0.40;0.40;;;;;;;10.09;55.13;102821.19;678384;28;136437;-68
2021/10/09 01:35:17;;;;;;;0.40;0.40;;;;;;;10.13;55.21;102827.19;679225;28;67492;-68
2021/10/09 01:35:49;;;;;;;0.30;0.30;;;;;;;10.13;55.14;102834.44;679148;29;23510;-68
2021/10/09 01:36:11;;;;;;;0.30;0.30;;;;;;;10.12;55.13;102830.00;679375;28;156434;-68
2021/10/09 01:36:39;;;;;;;0.40;0.40;;;;;;;10.15;55.47;102825.22;677781;28;137440;-67
2021/10/09 01:37:02;;;;;;;0.40;0.40;;;;;;;10.16;55.18;102826.09;680307;28;69417;-67
2021/10/09 01:37:35;;;;;;;0.30;0.30;;;;;;;10.15;55.29;102829.78;677803;28;136569;-68
2021/10/09 01:37:57;;;;;;;0.32;0.32;;;;;;;10.13;55.41;102821.78;678552;28;137520;-67
2021/10/09 01:38:20;;;;;;;0.40;0.40;;;;;;;10.14;55.48;102822.66;680566;28;22377;-67
2021/10/09 01:38:47;;;;;;;0.30;0.30;;;;;;;10.13;55.29;102826.34;678959;28;69491;-67
2021/10/09 01:39:14;;;;;;;0.30;0.30;;;;;;;10.10;55.14;102822.88;679280;28;137915;-67
2021/10/09 01:39:44;;;;;;;0.32;0.32;;;;;;;10.07;55.09;102822.28;680115;28;137958;-68
2021/10/09 01:40:09;;;;;;;0.40;0.40;;;;;;;10.05;55.25;102825.09;680304;28;138122;-67
2021/10/09 01:40:35;;;;;;;0.40;0.40;;;;;;;10.03;55.25;102821.69;679811;28;138935;-68
2021/10/09 01:40:57;;;;;;;0.30;0.30;;;;;;;10.03;55.58;102813.59;681058;28;44356;-69
2021/10/09 01:41:19;;;;;;;0.40;0.40;;;;;;;9.99;55.43;102817.50;684250;28;22401;-68
2021/10/09 01:41:42;;;;;;;0.50;0.50;;;;;;;10.01;55.43;102822.78;684651;28;45200;-68
2021/10/09 01:42:03;;;;;;;0.40;0.40;;;;;;;9.99;55.35;102822.03;683187;28;69469;-68
2021/10/09 01:42:26;;;;;;;0.30;0.30;;;;;;;9.97;55.69;102824.88;686012;28;46309;-68
2021/10/09 01:42:47;;;;;;;0.30;0.30;;;;;;;9.96;55.76;102823.13;686236;28;46380;-68
2021/10/09 01:43:09;;;;;;;0.43;0.43;;;;;;;9.97;55.51;102826.69;684410;28;44206;-67
2021/10/09 01:43:32;;;;;;;0.40;0.40;;;;;;;9.96;55.52;102823.13;685999;28;23487;-68
2021/10/09 01:43:53;;;;;;;0.38;0.38;;;;;;;9.97;55.59;102821.28;684271;28;70397;-67
2021/10/09 01:44:16;;;;;;;0.30;0.30;;;;;;;9.93;55.66;102824.22;682749;28;23493;-67
2021/10/09 01:44:38;;;;;;;0.40;0.40;;;;;;;9.95;55.85;102820.56;682507;28;68376;-67
2021/10/09 01:44:59;;;;;;;0.50;0.50;;;;;;;9.92;55.89;102816.25;683776;28;21278;-67
2021/10/09 01:45:21;;;;;;;0.40;0.40;;;;;;;9.91;55.56;102820.81;682470;28;45284;-67